Wake Island, Hawaii
Current Conditions -  °F | °C
As of 1:58 PM on Friday 28 Nov 2014 (Local Time) from PWAK Reporting Station
Clear Clear  
Wind Chill: 84°   Ceiling: Unl
Heat Index: 90°   Visibility: 6mi
Dew Point: 73°   Wind: 6mph
Humidity: 69%   Direction: 70°ENE
Pressure: 29.83"   Gusts: NA
Location:  19.2833°N, 166.6°E
Report Text: PWAK 290158Z AUTO 07005KT 9999 CLR 29/23 A2983 RMK AO2 SLP108 T02890228
Loading
Personal Weather Stations






























Interactive Weather Map New forecast layout! Learn more

10-Day Weather Forecast

Advertisements
Track Severe Weather on mobile